sensor_id;sensor_type;location;lat;lon;timestamp;P1;durP1;ratioP1;P2;durP2;ratioP2
4748;SDS011;2388;53.582;9.962;2022-10-22T00:00:21;14.30;;;12.60;;
4748;SDS011;2388;53.582;9.962;2022-10-22T00:02:48;15.03;;;12.63;;
4748;SDS011;2388;53.582;9.962;2022-10-22T00:05:13;16.00;;;12.97;;
4748;SDS011;2388;53.582;9.962;2022-10-22T00:07:39;19.30;;;13.73;;
4748;SDS011;2388;53.582;9.962;2022-10-22T00:10:05;14.60;;;11.70;;
4748;SDS011;2388;53.582;9.962;2022-10-22T00:12:32;16.97;;;12.20;;
4748;SDS011;2388;53.582;9.962;2022-10-22T00:14:58;14.90;;;12.43;;
4748;SDS011;2388;53.582;9.962;2022-10-22T00:17:23;16.80;;;13.13;;
4748;SDS011;2388;53.582;9.962;2022-10-22T00:19:49;22.60;;;13.00;;
4748;SDS011;2388;53.582;9.962;2022-10-22T00:22:14;20.73;;;13.90;;
4748;SDS011;2388;53.582;9.962;2022-10-22T00:24:40;21.23;;;14.10;;
4748;SDS011;2388;53.582;9.962;2022-10-22T00:27:06;17.07;;;13.10;;
4748;SDS011;2388;53.582;9.962;2022-10-22T00:29:34;19.90;;;13.30;;
4748;SDS011;2388;53.582;9.962;2022-10-22T00:32:00;16.73;;;12.40;;
4748;SDS011;2388;53.582;9.962;2022-10-22T00:34:26;19.83;;;13.70;;
4748;SDS011;2388;53.582;9.962;2022-10-22T00:36:52;15.20;;;12.83;;
4748;SDS011;2388;53.582;9.962;2022-10-22T00:39:18;17.63;;;13.97;;
4748;SDS011;2388;53.582;9.962;2022-10-22T00:41:46;18.77;;;13.20;;
4748;SDS011;2388;53.582;9.962;2022-10-22T00:47:16;18.20;;;13.90;;
4748;SDS011;2388;53.582;9.962;2022-10-22T00:49:44;20.53;;;12.93;;
4748;SDS011;2388;53.582;9.962;2022-10-22T00:52:10;16.87;;;13.40;;
4748;SDS011;2388;53.582;9.962;2022-10-22T00:54:36;15.00;;;13.40;;
4748;SDS011;2388;53.582;9.962;2022-10-22T00:57:03;15.57;;;13.03;;
4748;SDS011;2388;53.582;9.962;2022-10-22T00:59:29;18.73;;;14.10;;
4748;SDS011;2388;53.582;9.962;2022-10-22T01:01:56;18.90;;;13.67;;
4748;SDS011;2388;53.582;9.962;2022-10-22T01:04:21;24.40;;;15.20;;
4748;SDS011;2388;53.582;9.962;2022-10-22T01:06:47;16.60;;;12.87;;
4748;SDS011;2388;53.582;9.962;2022-10-22T01:12:02;18.73;;;13.87;;
4748;SDS011;2388;53.582;9.962;2022-10-22T01:15:36;25.13;;;15.30;;
4748;SDS011;2388;53.582;9.962;2022-10-22T01:17:41;22.30;;;15.50;;
4748;SDS011;2388;53.582;9.962;2022-10-22T01:25:58;20.63;;;13.80;;
4748;SDS011;2388;53.582;9.962;2022-10-22T01:31:17;21.10;;;14.57;;
4748;SDS011;2388;53.582;9.962;2022-10-22T01:33:45;20.20;;;13.97;;
4748;SDS011;2388;53.582;9.962;2022-10-22T01:36:13;19.27;;;14.77;;
4748;SDS011;2388;53.582;9.962;2022-10-22T01:38:39;16.30;;;13.73;;
4748;SDS011;2388;53.582;9.962;2022-10-22T01:41:08;18.90;;;13.87;;
4748;SDS011;2388;53.582;9.962;2022-10-22T01:43:35;21.37;;;15.00;;
4748;SDS011;2388;53.582;9.962;2022-10-22T01:46:01;20.60;;;15.40;;
4748;SDS011;2388;53.582;9.962;2022-10-22T01:51:25;24.40;;;14.87;;
4748;SDS011;2388;53.582;9.962;2022-10-22T01:54:06;15.97;;;13.53;;
4748;SDS011;2388;53.582;9.962;2022-10-22T02:02:46;18.60;;;13.87;;
4748;SDS011;2388;53.582;9.962;2022-10-22T02:05:27;17.90;;;13.50;;
4748;SDS011;2388;53.582;9.962;2022-10-22T02:08:11;17.87;;;14.00;;
4748;SDS011;2388;53.582;9.962;2022-10-22T02:10:40;25.90;;;13.40;;
4748;SDS011;2388;53.582;9.962;2022-10-22T02:13:09;18.03;;;13.20;;
4748;SDS011;2388;53.582;9.962;2022-10-22T02:15:39;19.10;;;13.60;;
4748;SDS011;2388;53.582;9.962;2022-10-22T02:18:07;18.03;;;13.47;;
4748;SDS011;2388;53.582;9.962;2022-10-22T02:20:34;19.17;;;14.07;;
4748;SDS011;2388;53.582;9.962;2022-10-22T02:23:01;18.00;;;14.30;;
4748;SDS011;2388;53.582;9.962;2022-10-22T02:25:29;20.20;;;13.60;;
4748;SDS011;2388;53.582;9.962;2022-10-22T02:31:01;17.20;;;14.10;;
4748;SDS011;2388;53.582;9.962;2022-10-22T02:33:33;14.80;;;11.80;;
4748;SDS011;2388;53.582;9.962;2022-10-22T02:36:02;14.27;;;11.37;;
4748;SDS011;2388;53.582;9.962;2022-10-22T02:38:30;13.60;;;11.10;;
4748;SDS011;2388;53.582;9.962;2022-10-22T02:40:56;13.00;;;11.60;;
4748;SDS011;2388;53.582;9.962;2022-10-22T02:43:23;15.33;;;11.43;;
4748;SDS011;2388;53.582;9.962;2022-10-22T02:45:49;14.00;;;11.10;;
4748;SDS011;2388;53.582;9.962;2022-10-22T02:48:15;13.73;;;10.97;;
4748;SDS011;2388;53.582;9.962;2022-10-22T02:50:41;14.57;;;11.90;;
4748;SDS011;2388;53.582;9.962;2022-10-22T02:53:06;12.57;;;10.83;;
4748;SDS011;2388;53.582;9.962;2022-10-22T02:55:32;13.30;;;10.90;;
4748;SDS011;2388;53.582;9.962;2022-10-22T02:57:57;14.33;;;11.27;;
4748;SDS011;2388;53.582;9.962;2022-10-22T03:00:22;12.37;;;10.60;;
4748;SDS011;2388;53.582;9.962;2022-10-22T03:02:48;15.43;;;10.77;;
4748;SDS011;2388;53.582;9.962;2022-10-22T03:05:13;15.47;;;11.77;;
4748;SDS011;2388;53.582;9.962;2022-10-22T03:07:39;15.53;;;11.50;;
4748;SDS011;2388;53.582;9.962;2022-10-22T03:10:04;15.47;;;11.10;;
4748;SDS011;2388;53.582;9.962;2022-10-22T03:12:30;17.60;;;11.70;;
4748;SDS011;2388;53.582;9.962;2022-10-22T03:14:56;17.50;;;11.73;;
4748;SDS011;2388;53.582;9.962;2022-10-22T03:17:21;12.80;;;11.33;;
4748;SDS011;2388;53.582;9.962;2022-10-22T03:19:47;16.43;;;10.13;;
4748;SDS011;2388;53.582;9.962;2022-10-22T03:22:14;13.80;;;11.40;;
4748;SDS011;2388;53.582;9.962;2022-10-22T03:24:44;17.67;;;11.87;;
4748;SDS011;2388;53.582;9.962;2022-10-22T03:27:12;14.83;;;11.83;;
4748;SDS011;2388;53.582;9.962;2022-10-22T03:29:39;14.30;;;11.90;;
4748;SDS011;2388;53.582;9.962;2022-10-22T03:32:06;26.60;;;12.37;;
4748;SDS011;2388;53.582;9.962;2022-10-22T03:34:31;19.13;;;12.80;;
4748;SDS011;2388;53.582;9.962;2022-10-22T03:36:57;16.40;;;12.37;;
4748;SDS011;2388;53.582;9.962;2022-10-22T03:39:25;18.90;;;12.30;;
4748;SDS011;2388;53.582;9.962;2022-10-22T03:41:52;17.50;;;13.03;;
4748;SDS011;2388;53.582;9.962;2022-10-22T03:44:18;13.20;;;11.40;;
4748;SDS011;2388;53.582;9.962;2022-10-22T03:46:45;16.17;;;11.13;;
4748;SDS011;2388;53.582;9.962;2022-10-22T03:49:11;15.37;;;11.30;;
4748;SDS011;2388;53.582;9.962;2022-10-22T03:51:36;20.57;;;15.70;;
4748;SDS011;2388;53.582;9.962;2022-10-22T03:54:02;35.17;;;24.90;;
4748;SDS011;2388;53.582;9.962;2022-10-22T03:56:28;25.63;;;18.43;;
4748;SDS011;2388;53.582;9.962;2022-10-22T03:58:57;17.60;;;14.00;;
4748;SDS011;2388;53.582;9.962;2022-10-22T04:01:24;16.13;;;12.20;;
4748;SDS011;2388;53.582;9.962;2022-10-22T04:03:50;18.80;;;11.80;;
4748;SDS011;2388;53.582;9.962;2022-10-22T04:06:16;20.60;;;11.93;;
4748;SDS011;2388;53.582;9.962;2022-10-22T04:08:42;13.60;;;11.43;;
4748;SDS011;2388;53.582;9.962;2022-10-22T04:11:09;14.33;;;10.80;;
4748;SDS011;2388;53.582;9.962;2022-10-22T04:13:36;17.93;;;12.00;;
4748;SDS011;2388;53.582;9.962;2022-10-22T04:18:32;14.20;;;12.33;;
4748;SDS011;2388;53.582;9.962;2022-10-22T04:20:58;16.40;;;11.97;;
4748;SDS011;2388;53.582;9.962;2022-10-22T04:23:23;16.53;;;12.23;;
4748;SDS011;2388;53.582;9.962;2022-10-22T04:25:49;16.53;;;12.10;;
4748;SDS011;2388;53.582;9.962;2022-10-22T04:28:20;13.33;;;11.93;;
4748;SDS011;2388;53.582;9.962;2022-10-22T04:30:46;15.80;;;12.00;;
4748;SDS011;2388;53.582;9.962;2022-10-22T04:33:11;17.10;;;12.10;;
4748;SDS011;2388;53.582;9.962;2022-10-22T04:35:37;15.00;;;11.27;;
4748;SDS011;2388;53.582;9.962;2022-10-22T04:38:03;17.90;;;11.47;;
4748;SDS011;2388;53.582;9.962;2022-10-22T04:40:29;13.03;;;11.57;;
4748;SDS011;2388;53.582;9.962;2022-10-22T04:42:55;13.77;;;11.20;;
4748;SDS011;2388;53.582;9.962;2022-10-22T04:45:20;17.67;;;11.80;;
4748;SDS011;2388;53.582;9.962;2022-10-22T04:47:46;16.07;;;11.83;;
4748;SDS011;2388;53.582;9.962;2022-10-22T04:50:11;15.03;;;11.70;;
4748;SDS011;2388;53.582;9.962;2022-10-22T04:52:37;15.13;;;12.53;;
4748;SDS011;2388;53.582;9.962;2022-10-22T04:55:03;15.50;;;12.07;;
4748;SDS011;2388;53.582;9.962;2022-10-22T04:57:29;18.53;;;12.10;;
4748;SDS011;2388;53.582;9.962;2022-10-22T04:59:55;14.67;;;12.43;;
4748;SDS011;2388;53.582;9.962;2022-10-22T05:02:20;15.33;;;12.80;;
4748;SDS011;2388;53.582;9.962;2022-10-22T05:04:46;16.00;;;11.67;;
4748;SDS011;2388;53.582;9.962;2022-10-22T05:07:11;15.90;;;11.63;;
4748;SDS011;2388;53.582;9.962;2022-10-22T05:09:38;16.43;;;13.00;;
4748;SDS011;2388;53.582;9.962;2022-10-22T05:12:03;23.93;;;15.43;;
4748;SDS011;2388;53.582;9.962;2022-10-22T05:14:30;21.40;;;15.83;;
4748;SDS011;2388;53.582;9.962;2022-10-22T05:16:56;21.27;;;15.40;;
4748;SDS011;2388;53.582;9.962;2022-10-22T05:19:23;19.03;;;14.87;;
4748;SDS011;2388;53.582;9.962;2022-10-22T05:21:54;21.67;;;16.30;;
4748;SDS011;2388;53.582;9.962;2022-10-22T05:24:22;18.77;;;14.80;;
4748;SDS011;2388;53.582;9.962;2022-10-22T05:26:49;18.20;;;13.97;;
4748;SDS011;2388;53.582;9.962;2022-10-22T05:29:15;17.83;;;14.40;;
4748;SDS011;2388;53.582;9.962;2022-10-22T05:31:40;18.47;;;14.73;;
4748;SDS011;2388;53.582;9.962;2022-10-22T05:34:06;19.07;;;15.17;;
4748;SDS011;2388;53.582;9.962;2022-10-22T05:36:31;20.83;;;15.63;;
4748;SDS011;2388;53.582;9.962;2022-10-22T05:38:57;20.70;;;14.57;;
4748;SDS011;2388;53.582;9.962;2022-10-22T05:41:23;21.43;;;14.60;;
4748;SDS011;2388;53.582;9.962;2022-10-22T05:43:53;20.90;;;14.87;;
4748;SDS011;2388;53.582;9.962;2022-10-22T05:46:23;20.03;;;15.83;;
4748;SDS011;2388;53.582;9.962;2022-10-22T05:48:50;19.73;;;15.27;;
4748;SDS011;2388;53.582;9.962;2022-10-22T05:51:17;21.00;;;15.73;;
4748;SDS011;2388;53.582;9.962;2022-10-22T05:53:44;24.00;;;16.57;;
4748;SDS011;2388;53.582;9.962;2022-10-22T05:56:13;20.40;;;16.30;;
4748;SDS011;2388;53.582;9.962;2022-10-22T05:58:40;19.37;;;16.00;;
4748;SDS011;2388;53.582;9.962;2022-10-22T06:01:08;26.93;;;18.10;;
4748;SDS011;2388;53.582;9.962;2022-10-22T06:03:37;19.13;;;15.13;;
4748;SDS011;2388;53.582;9.962;2022-10-22T06:06:04;21.10;;;15.67;;
4748;SDS011;2388;53.582;9.962;2022-10-22T06:08:51;19.90;;;16.30;;
4748;SDS011;2388;53.582;9.962;2022-10-22T06:11:19;42.70;;;27.63;;
4748;SDS011;2388;53.582;9.962;2022-10-22T06:13:46;46.97;;;33.20;;
4748;SDS011;2388;53.582;9.962;2022-10-22T06:16:12;33.33;;;26.13;;
4748;SDS011;2388;53.582;9.962;2022-10-22T06:18:38;37.23;;;26.00;;
4748;SDS011;2388;53.582;9.962;2022-10-22T06:21:07;41.57;;;30.73;;
4748;SDS011;2388;53.582;9.962;2022-10-22T06:23:35;35.23;;;25.13;;
4748;SDS011;2388;53.582;9.962;2022-10-22T06:26:01;27.50;;;17.10;;
4748;SDS011;2388;53.582;9.962;2022-10-22T06:28:28;20.23;;;14.80;;
4748;SDS011;2388;53.582;9.962;2022-10-22T06:30:55;19.50;;;15.03;;
4748;SDS011;2388;53.582;9.962;2022-10-22T06:33:22;17.17;;;13.90;;
4748;SDS011;2388;53.582;9.962;2022-10-22T06:35:48;26.87;;;15.43;;
4748;SDS011;2388;53.582;9.962;2022-10-22T06:38:13;20.00;;;15.27;;
4748;SDS011;2388;53.582;9.962;2022-10-22T06:40:39;17.73;;;13.77;;
4748;SDS011;2388;53.582;9.962;2022-10-22T06:43:07;18.00;;;14.03;;
4748;SDS011;2388;53.582;9.962;2022-10-22T06:45:33;37.73;;;24.57;;
4748;SDS011;2388;53.582;9.962;2022-10-22T06:47:59;37.00;;;26.87;;
4748;SDS011;2388;53.582;9.962;2022-10-22T06:50:24;43.27;;;29.40;;
4748;SDS011;2388;53.582;9.962;2022-10-22T06:52:50;25.90;;;17.47;;
4748;SDS011;2388;53.582;9.962;2022-10-22T06:55:15;18.27;;;15.27;;
4748;SDS011;2388;53.582;9.962;2022-10-22T06:57:41;16.33;;;13.30;;
4748;SDS011;2388;53.582;9.962;2022-10-22T07:00:06;18.67;;;13.70;;
4748;SDS011;2388;53.582;9.962;2022-10-22T07:02:33;18.40;;;13.57;;
4748;SDS011;2388;53.582;9.962;2022-10-22T07:04:58;22.90;;;14.63;;
4748;SDS011;2388;53.582;9.962;2022-10-22T07:07:24;18.40;;;14.30;;
4748;SDS011;2388;53.582;9.962;2022-10-22T07:09:49;19.17;;;14.37;;
4748;SDS011;2388;53.582;9.962;2022-10-22T07:12:15;19.23;;;14.00;;
4748;SDS011;2388;53.582;9.962;2022-10-22T07:14:41;17.90;;;13.77;;
4748;SDS011;2388;53.582;9.962;2022-10-22T07:17:06;16.53;;;12.90;;
4748;SDS011;2388;53.582;9.962;2022-10-22T07:19:32;19.73;;;15.00;;
4748;SDS011;2388;53.582;9.962;2022-10-22T07:21:57;17.90;;;14.30;;
4748;SDS011;2388;53.582;9.962;2022-10-22T07:24:23;22.73;;;14.37;;
4748;SDS011;2388;53.582;9.962;2022-10-22T07:26:49;22.43;;;13.83;;
4748;SDS011;2388;53.582;9.962;2022-10-22T07:29:14;18.40;;;14.60;;
4748;SDS011;2388;53.582;9.962;2022-10-22T07:31:40;19.67;;;14.47;;
4748;SDS011;2388;53.582;9.962;2022-10-22T07:34:06;17.43;;;13.90;;
4748;SDS011;2388;53.582;9.962;2022-10-22T07:36:31;22.17;;;14.70;;
4748;SDS011;2388;53.582;9.962;2022-10-22T07:38:59;24.00;;;15.57;;
4748;SDS011;2388;53.582;9.962;2022-10-22T07:41:26;31.50;;;22.07;;
4748;SDS011;2388;53.582;9.962;2022-10-22T07:43:52;31.63;;;24.57;;
4748;SDS011;2388;53.582;9.962;2022-10-22T07:46:19;24.07;;;17.17;;
4748;SDS011;2388;53.582;9.962;2022-10-22T07:48:44;20.17;;;15.60;;
4748;SDS011;2388;53.582;9.962;2022-10-22T07:51:10;19.53;;;15.27;;
4748;SDS011;2388;53.582;9.962;2022-10-22T07:53:36;22.67;;;14.33;;
4748;SDS011;2388;53.582;9.962;2022-10-22T07:56:01;23.00;;;15.10;;
4748;SDS011;2388;53.582;9.962;2022-10-22T07:58:27;29.30;;;21.93;;
4748;SDS011;2388;53.582;9.962;2022-10-22T08:00:56;42.60;;;27.23;;
4748;SDS011;2388;53.582;9.962;2022-10-22T08:03:24;28.80;;;19.70;;
4748;SDS011;2388;53.582;9.962;2022-10-22T08:05:50;19.77;;;16.50;;
4748;SDS011;2388;53.582;9.962;2022-10-22T08:08:17;18.83;;;14.47;;
4748;SDS011;2388;53.582;9.962;2022-10-22T08:10:43;23.63;;;15.03;;
4748;SDS011;2388;53.582;9.962;2022-10-22T08:13:10;17.37;;;14.20;;
4748;SDS011;2388;53.582;9.962;2022-10-22T08:15:36;21.30;;;14.10;;
4748;SDS011;2388;53.582;9.962;2022-10-22T08:18:02;20.97;;;14.30;;
4748;SDS011;2388;53.582;9.962;2022-10-22T08:20:27;17.00;;;13.20;;
4748;SDS011;2388;53.582;9.962;2022-10-22T08:22:53;16.47;;;12.37;;
4748;SDS011;2388;53.582;9.962;2022-10-22T08:25:18;16.33;;;11.80;;
4748;SDS011;2388;53.582;9.962;2022-10-22T08:27:44;16.37;;;11.67;;
4748;SDS011;2388;53.582;9.962;2022-10-22T08:30:10;15.03;;;11.10;;
4748;SDS011;2388;53.582;9.962;2022-10-22T08:32:36;14.03;;;10.90;;
4748;SDS011;2388;53.582;9.962;2022-10-22T08:35:02;14.30;;;10.33;;
4748;SDS011;2388;53.582;9.962;2022-10-22T08:37:27;16.30;;;11.27;;
4748;SDS011;2388;53.582;9.962;2022-10-22T08:39:53;19.60;;;10.87;;
4748;SDS011;2388;53.582;9.962;2022-10-22T08:42:32;17.20;;;10.23;;
4748;SDS011;2388;53.582;9.962;2022-10-22T08:50:35;12.80;;;10.23;;
4748;SDS011;2388;53.582;9.962;2022-10-22T08:53:13;12.17;;;9.33;;
4748;SDS011;2388;53.582;9.962;2022-10-22T08:55:41;21.20;;;16.60;;
4748;SDS011;2388;53.582;9.962;2022-10-22T08:58:16;35.73;;;25.63;;
4748;SDS011;2388;53.582;9.962;2022-10-22T09:01:04;29.53;;;22.43;;
4748;SDS011;2388;53.582;9.962;2022-10-22T09:03:49;14.53;;;11.70;;
4748;SDS011;2388;53.582;9.962;2022-10-22T09:06:25;17.70;;;10.57;;
4748;SDS011;2388;53.582;9.962;2022-10-22T09:08:52;17.47;;;10.30;;
4748;SDS011;2388;53.582;9.962;2022-10-22T09:11:22;10.77;;;8.67;;
4748;SDS011;2388;53.582;9.962;2022-10-22T09:13:50;19.30;;;8.47;;
4748;SDS011;2388;53.582;9.962;2022-10-22T09:24:27;27.83;;;20.87;;
4748;SDS011;2388;53.582;9.962;2022-10-22T09:26:57;32.80;;;25.73;;
4748;SDS011;2388;53.582;9.962;2022-10-22T09:29:24;15.93;;;9.93;;
4748;SDS011;2388;53.582;9.962;2022-10-22T09:31:56;11.23;;;7.30;;
4748;SDS011;2388;53.582;9.962;2022-10-22T09:34:22;15.07;;;7.17;;
4748;SDS011;2388;53.582;9.962;2022-10-22T09:36:55;13.73;;;6.60;;
4748;SDS011;2388;53.582;9.962;2022-10-22T09:39:27;10.70;;;6.47;;
4748;SDS011;2388;53.582;9.962;2022-10-22T09:41:56;10.30;;;6.73;;
4748;SDS011;2388;53.582;9.962;2022-10-22T09:44:22;14.40;;;6.00;;
4748;SDS011;2388;53.582;9.962;2022-10-22T09:46:47;8.57;;;5.87;;
4748;SDS011;2388;53.582;9.962;2022-10-22T09:49:14;9.80;;;5.87;;
4748;SDS011;2388;53.582;9.962;2022-10-22T09:51:48;12.03;;;6.37;;
4748;SDS011;2388;53.582;9.962;2022-10-22T09:56:46;14.50;;;5.33;;
4748;SDS011;2388;53.582;9.962;2022-10-22T09:59:37;12.70;;;6.10;;
4748;SDS011;2388;53.582;9.962;2022-10-22T10:04:39;8.50;;;5.67;;
4748;SDS011;2388;53.582;9.962;2022-10-22T10:07:21;10.27;;;4.10;;
4748;SDS011;2388;53.582;9.962;2022-10-22T10:09:57;9.13;;;4.60;;
4748;SDS011;2388;53.582;9.962;2022-10-22T10:15:06;7.13;;;4.60;;
4748;SDS011;2388;53.582;9.962;2022-10-22T10:17:55;9.43;;;5.43;;
4748;SDS011;2388;53.582;9.962;2022-10-22T10:23:21;12.10;;;7.03;;
4748;SDS011;2388;53.582;9.962;2022-10-22T10:25:56;10.50;;;4.20;;
4748;SDS011;2388;53.582;9.962;2022-10-22T10:28:42;4.17;;;3.20;;
4748;SDS011;2388;53.582;9.962;2022-10-22T10:39:23;6.60;;;3.67;;
4748;SDS011;2388;53.582;9.962;2022-10-22T10:42:18;8.37;;;3.03;;
4748;SDS011;2388;53.582;9.962;2022-10-22T10:47:42;7.37;;;3.10;;
4748;SDS011;2388;53.582;9.962;2022-10-22T11:08:19;10.17;;;3.27;;
4748;SDS011;2388;53.582;9.962;2022-10-22T11:13:37;4.60;;;2.43;;
4748;SDS011;2388;53.582;9.962;2022-10-22T11:16:27;3.43;;;1.83;;
4748;SDS011;2388;53.582;9.962;2022-10-22T11:19:02;7.13;;;2.17;;
4748;SDS011;2388;53.582;9.962;2022-10-22T11:21:49;6.93;;;1.67;;
4748;SDS011;2388;53.582;9.962;2022-10-22T11:24:25;20.33;;;7.90;;
4748;SDS011;2388;53.582;9.962;2022-10-22T11:27:00;24.60;;;16.47;;
4748;SDS011;2388;53.582;9.962;2022-10-22T11:29:39;7.53;;;2.57;;
4748;SDS011;2388;53.582;9.962;2022-10-22T11:32:16;6.60;;;2.57;;
4748;SDS011;2388;53.582;9.962;2022-10-22T11:34:45;7.47;;;2.00;;
4748;SDS011;2388;53.582;9.962;2022-10-22T11:37:14;5.93;;;1.83;;
4748;SDS011;2388;53.582;9.962;2022-10-22T11:39:42;5.20;;;2.90;;
4748;SDS011;2388;53.582;9.962;2022-10-22T11:42:20;6.90;;;2.13;;
4748;SDS011;2388;53.582;9.962;2022-10-22T11:47:31;3.70;;;1.90;;
4748;SDS011;2388;53.582;9.962;2022-10-22T11:50:19;8.40;;;2.40;;
4748;SDS011;2388;53.582;9.962;2022-10-22T11:58:26;19.00;;;14.37;;
4748;SDS011;2388;53.582;9.962;2022-10-22T12:08:43;8.23;;;2.70;;
4748;SDS011;2388;53.582;9.962;2022-10-22T12:11:12;4.30;;;2.87;;
4748;SDS011;2388;53.582;9.962;2022-10-22T12:16:35;4.00;;;2.40;;
4748;SDS011;2388;53.582;9.962;2022-10-22T12:22:12;5.33;;;2.90;;
4748;SDS011;2388;53.582;9.962;2022-10-22T12:24:42;9.13;;;4.00;;
4748;SDS011;2388;53.582;9.962;2022-10-22T12:27:17;5.57;;;3.20;;
4748;SDS011;2388;53.582;9.962;2022-10-22T12:29:45;4.63;;;2.70;;
4748;SDS011;2388;53.582;9.962;2022-10-22T12:32:11;3.63;;;2.97;;
4748;SDS011;2388;53.582;9.962;2022-10-22T12:34:46;7.23;;;2.87;;
4748;SDS011;2388;53.582;9.962;2022-10-22T12:37:14;7.10;;;2.60;;
4748;SDS011;2388;53.582;9.962;2022-10-22T12:39:41;10.03;;;3.30;;
4748;SDS011;2388;53.582;9.962;2022-10-22T12:42:10;5.80;;;3.33;;
4748;SDS011;2388;53.582;9.962;2022-10-22T12:44:38;7.03;;;3.77;;
4748;SDS011;2388;53.582;9.962;2022-10-22T12:47:04;29.60;;;21.97;;
4748;SDS011;2388;53.582;9.962;2022-10-22T12:49:35;20.63;;;12.23;;
4748;SDS011;2388;53.582;9.962;2022-10-22T12:52:05;14.10;;;8.80;;
4748;SDS011;2388;53.582;9.962;2022-10-22T12:54:35;6.33;;;4.10;;
4748;SDS011;2388;53.582;9.962;2022-10-22T12:57:02;4.20;;;3.00;;
4748;SDS011;2388;53.582;9.962;2022-10-22T12:59:28;3.70;;;3.00;;
4748;SDS011;2388;53.582;9.962;2022-10-22T13:01:57;5.40;;;2.70;;
4748;SDS011;2388;53.582;9.962;2022-10-22T13:04:31;10.00;;;3.73;;
4748;SDS011;2388;53.582;9.962;2022-10-22T13:09:40;8.30;;;3.13;;
4748;SDS011;2388;53.582;9.962;2022-10-22T13:12:23;5.00;;;2.70;;
4748;SDS011;2388;53.582;9.962;2022-10-22T13:14:50;8.40;;;3.10;;
4748;SDS011;2388;53.582;9.962;2022-10-22T13:17:20;7.03;;;2.50;;
4748;SDS011;2388;53.582;9.962;2022-10-22T13:20:10;2.60;;;2.20;;
4748;SDS011;2388;53.582;9.962;2022-10-22T13:22:56;6.00;;;2.20;;
4748;SDS011;2388;53.582;9.962;2022-10-22T13:27:55;8.83;;;2.30;;
4748;SDS011;2388;53.582;9.962;2022-10-22T13:30:50;4.80;;;2.37;;
4748;SDS011;2388;53.582;9.962;2022-10-22T13:33:23;6.90;;;2.63;;
4748;SDS011;2388;53.582;9.962;2022-10-22T13:36:05;2.33;;;2.03;;
4748;SDS011;2388;53.582;9.962;2022-10-22T13:38:31;7.90;;;2.23;;
4748;SDS011;2388;53.582;9.962;2022-10-22T13:40:56;6.13;;;2.27;;
4748;SDS011;2388;53.582;9.962;2022-10-22T13:43:23;70.90;;;45.30;;
4748;SDS011;2388;53.582;9.962;2022-10-22T13:45:51;11.23;;;9.10;;
4748;SDS011;2388;53.582;9.962;2022-10-22T13:48:19;4.40;;;2.97;;
4748;SDS011;2388;53.582;9.962;2022-10-22T13:50:48;7.50;;;3.87;;
4748;SDS011;2388;53.582;9.962;2022-10-22T13:53:15;4.27;;;2.87;;
4748;SDS011;2388;53.582;9.962;2022-10-22T13:55:45;6.03;;;3.00;;
4748;SDS011;2388;53.582;9.962;2022-10-22T13:58:12;4.97;;;2.60;;
4748;SDS011;2388;53.582;9.962;2022-10-22T14:00:41;7.20;;;2.13;;
4748;SDS011;2388;53.582;9.962;2022-10-22T14:03:10;7.23;;;2.90;;
4748;SDS011;2388;53.582;9.962;2022-10-22T14:05:38;17.10;;;10.63;;
4748;SDS011;2388;53.582;9.962;2022-10-22T14:08:08;13.37;;;9.93;;
4748;SDS011;2388;53.582;9.962;2022-10-22T14:10:38;20.07;;;15.50;;
4748;SDS011;2388;53.582;9.962;2022-10-22T14:13:05;25.13;;;18.20;;
4748;SDS011;2388;53.582;9.962;2022-10-22T14:15:31;6.97;;;4.97;;
4748;SDS011;2388;53.582;9.962;2022-10-22T14:17:58;7.90;;;5.03;;
4748;SDS011;2388;53.582;9.962;2022-10-22T14:20:25;7.10;;;4.87;;
4748;SDS011;2388;53.582;9.962;2022-10-22T14:22:55;13.30;;;5.30;;
4748;SDS011;2388;53.582;9.962;2022-10-22T14:25:21;15.93;;;9.00;;
4748;SDS011;2388;53.582;9.962;2022-10-22T14:27:48;12.10;;;4.80;;
4748;SDS011;2388;53.582;9.962;2022-10-22T14:30:18;18.53;;;5.50;;
4748;SDS011;2388;53.582;9.962;2022-10-22T14:32:45;22.77;;;9.00;;
4748;SDS011;2388;53.582;9.962;2022-10-22T14:35:12;11.27;;;3.57;;
4748;SDS011;2388;53.582;9.962;2022-10-22T14:37:40;5.77;;;3.30;;
4748;SDS011;2388;53.582;9.962;2022-10-22T14:40:06;5.57;;;1.93;;
4748;SDS011;2388;53.582;9.962;2022-10-22T14:42:33;5.40;;;2.20;;
4748;SDS011;2388;53.582;9.962;2022-10-22T14:45:04;6.77;;;3.07;;
4748;SDS011;2388;53.582;9.962;2022-10-22T14:47:30;10.00;;;2.37;;
4748;SDS011;2388;53.582;9.962;2022-10-22T14:49:56;7.60;;;2.03;;
4748;SDS011;2388;53.582;9.962;2022-10-22T14:52:21;9.13;;;2.80;;
4748;SDS011;2388;53.582;9.962;2022-10-22T14:54:47;9.13;;;2.20;;
4748;SDS011;2388;53.582;9.962;2022-10-22T14:57:13;4.43;;;2.03;;
4748;SDS011;2388;53.582;9.962;2022-10-22T14:59:40;7.00;;;1.90;;
4748;SDS011;2388;53.582;9.962;2022-10-22T15:02:07;8.87;;;2.73;;
4748;SDS011;2388;53.582;9.962;2022-10-22T15:04:36;30.80;;;18.80;;
4748;SDS011;2388;53.582;9.962;2022-10-22T15:07:01;19.50;;;9.93;;
4748;SDS011;2388;53.582;9.962;2022-10-22T15:09:27;21.10;;;4.10;;
4748;SDS011;2388;53.582;9.962;2022-10-22T15:11:53;45.77;;;28.90;;
4748;SDS011;2388;53.582;9.962;2022-10-22T15:14:18;28.20;;;16.27;;
4748;SDS011;2388;53.582;9.962;2022-10-22T15:16:44;25.23;;;11.80;;
4748;SDS011;2388;53.582;9.962;2022-10-22T15:19:09;10.27;;;2.33;;
4748;SDS011;2388;53.582;9.962;2022-10-22T15:21:35;3.80;;;1.90;;
4748;SDS011;2388;53.582;9.962;2022-10-22T15:24:00;12.33;;;2.13;;
4748;SDS011;2388;53.582;9.962;2022-10-22T15:26:26;7.13;;;1.50;;
4748;SDS011;2388;53.582;9.962;2022-10-22T15:28:52;7.40;;;1.97;;
4748;SDS011;2388;53.582;9.962;2022-10-22T15:34:07;6.90;;;2.33;;
4748;SDS011;2388;53.582;9.962;2022-10-22T15:36:32;3.77;;;1.83;;
4748;SDS011;2388;53.582;9.962;2022-10-22T15:38:58;4.23;;;1.80;;
4748;SDS011;2388;53.582;9.962;2022-10-22T15:41:23;5.70;;;2.40;;
4748;SDS011;2388;53.582;9.962;2022-10-22T15:43:48;3.63;;;2.03;;
4748;SDS011;2388;53.582;9.962;2022-10-22T15:46:15;4.50;;;1.97;;
4748;SDS011;2388;53.582;9.962;2022-10-22T15:48:42;2.33;;;1.97;;
4748;SDS011;2388;53.582;9.962;2022-10-22T15:51:09;5.40;;;1.87;;
4748;SDS011;2388;53.582;9.962;2022-10-22T15:53:37;3.53;;;1.77;;
4748;SDS011;2388;53.582;9.962;2022-10-22T15:56:02;6.17;;;2.40;;
4748;SDS011;2388;53.582;9.962;2022-10-22T15:58:28;3.20;;;2.20;;
4748;SDS011;2388;53.582;9.962;2022-10-22T16:00:53;3.83;;;2.60;;
4748;SDS011;2388;53.582;9.962;2022-10-22T16:03:19;2.97;;;2.10;;
4748;SDS011;2388;53.582;9.962;2022-10-22T16:05:50;4.77;;;2.50;;
4748;SDS011;2388;53.582;9.962;2022-10-22T16:08:18;4.93;;;1.87;;
4748;SDS011;2388;53.582;9.962;2022-10-22T16:10:44;7.37;;;2.80;;
4748;SDS011;2388;53.582;9.962;2022-10-22T16:13:11;3.97;;;2.60;;
4748;SDS011;2388;53.582;9.962;2022-10-22T16:15:36;3.00;;;2.47;;
4748;SDS011;2388;53.582;9.962;2022-10-22T16:18:02;6.20;;;2.40;;
4748;SDS011;2388;53.582;9.962;2022-10-22T16:20:27;5.90;;;2.60;;
4748;SDS011;2388;53.582;9.962;2022-10-22T16:22:52;7.63;;;2.53;;
4748;SDS011;2388;53.582;9.962;2022-10-22T16:25:18;4.63;;;3.07;;
4748;SDS011;2388;53.582;9.962;2022-10-22T16:27:47;6.23;;;3.17;;
4748;SDS011;2388;53.582;9.962;2022-10-22T16:30:13;5.10;;;2.97;;
4748;SDS011;2388;53.582;9.962;2022-10-22T16:32:39;9.10;;;3.30;;
4748;SDS011;2388;53.582;9.962;2022-10-22T16:35:04;4.23;;;2.97;;
4748;SDS011;2388;53.582;9.962;2022-10-22T16:37:32;5.37;;;2.70;;
4748;SDS011;2388;53.582;9.962;2022-10-22T16:39:57;12.93;;;3.27;;
4748;SDS011;2388;53.582;9.962;2022-10-22T16:42:23;6.63;;;3.30;;
4748;SDS011;2388;53.582;9.962;2022-10-22T16:44:48;12.30;;;3.20;;
4748;SDS011;2388;53.582;9.962;2022-10-22T16:47:14;8.03;;;4.63;;
4748;SDS011;2388;53.582;9.962;2022-10-22T16:49:39;52.00;;;35.60;;
4748;SDS011;2388;53.582;9.962;2022-10-22T16:52:05;23.10;;;18.70;;
4748;SDS011;2388;53.582;9.962;2022-10-22T16:54:30;36.20;;;25.63;;
4748;SDS011;2388;53.582;9.962;2022-10-22T16:56:56;25.07;;;14.30;;
4748;SDS011;2388;53.582;9.962;2022-10-22T16:59:21;15.03;;;3.77;;